• Join FlightAware (Why Join?)
  • Login
  • US Flag 
12:44PM EDT


 

Airport Tracker/Info


-or-


 

Live Flight TrackerFlight Track Log ✈ SKW4664 ✈ 21-Jun-2013 ✈ KSAN - KSLC

Flight Track Log - Related Links

Times and Time Zones

All times are in EDT time to prevent confusion due to time zone crossing. See the SKW4664 flight status page for this flight to view local times or setup timezone preferences in your user account.

Time Position Orientation Groundspeed Altitude Reporting Facility
EDT Latitude Longitude Course Direction KTS MPH feet Rate Location/Type
01:32PM 32.7564 -117.2919 284° West 208 239 3,500  Level Los Angeles Center
01:33PM 32.6079 -117.0344 100° East  Level FlightAware Approximate
01:33PM 32.7078 -117.3122 199° South 235 270 5,900  Level Los Angeles Center
01:34PM 32.6072 -116.8875 84° East  Level FlightAware Approximate
01:34PM 32.6542 -117.2569 139° Southeast 257 296 8,000  Level Los Angeles Center
01:35PM 32.6384 -116.7594 16° North  Level FlightAware Approximate
01:35PM 32.6375 -117.1608 102° East 291 335 10,000  Level Los Angeles Center
01:36PM 32.7570 -116.7139 19° North  Level FlightAware Approximate
01:36PM 32.6986 -117.0639 53° Northeast 317 365 12,600  Level Los Angeles Center
01:37PM 32.7644 -116.9906 43° Northeast 321 369 14,600 1,980 Climbing Los Angeles Center
01:38PM 32.8347 -116.9158 42° Northeast 331 381 16,700 1,800 Climbing Los Angeles Center
01:39PM 32.9075 -116.8367 42° Northeast 344 396 18,400 1,440 Climbing Los Angeles Center
01:40PM 32.9853 -116.7539 42° Northeast 362 417 19,800 1,500 Climbing Los Angeles Center
01:41PM 33.0669 -116.6653 42° Northeast 384 442 21,600 1,740 Climbing Los Angeles Center
01:42PM 33.1497 -116.5778 41° Northeast 391 450 23,400 1,620 Climbing Los Angeles Center
01:43PM 33.2586 -116.4828 36° Northeast 402 463 25,000 720 Climbing Los Angeles Center
01:44PM 33.3503 -116.4039 36° Northeast 403 464 25,000  Level Los Angeles Center
01:45PM 33.4417 -116.3233 36° Northeast 406 467 25,000 840 Level Los Angeles Center
01:46PM 33.5356 -116.2411 36° Northeast 413 475 26,800 1,380 Climbing Los Angeles Center
01:47PM 33.6289 -116.1586 36° Northeast 414 476 27,900 960 Climbing Los Angeles Center
01:48PM 33.7308 -116.0772 34° Northeast 435 501 28,800 1,260 Climbing Los Angeles Center
01:49PM 33.8544 -115.9767 34° Northeast 446 513 30,600 1,560 Climbing Los Angeles Center
01:50PM 33.9569 -115.8950 33° Northeast 442 509 32,100 1,140 Climbing Los Angeles Center
01:51PM 34.0575 -115.8128 34° Northeast 439 505 33,000 780 Climbing Los Angeles Center
01:53PM 34.1567 -115.7169 39° Northeast 458 527 33,800 840 Climbing Los Angeles Center
01:54PM 34.2519 -115.6081 43° Northeast 469 540 34,800 540 Climbing Los Angeles Center
01:55PM 34.3575 -115.5208 34° Northeast 463 533 35,000 60 Climbing Los Angeles Center
01:56PM 34.5042 -115.4581 19° North 467 537 35,000  Level Los Angeles Center
01:57PM 34.6253 -115.4103 18° North 460 529 35,000  Level Los Angeles Center
01:58PM 34.7347 -115.3667 18° North 454 522 35,000  Level Los Angeles Center
01:59PM 34.8772 -115.3097 18° North 448 516 35,000  Level Los Angeles Center
02:00PM 34.9747 -115.2717 18° North 446 513 35,000  Level Los Angeles Center
02:01PM 35.1117 -115.2172 18° North 443 510 35,000  Level Los Angeles Center
02:02PM 35.2317 -115.1697 18° North 448 516 35,000  Level Los Angeles Center
02:03PM 35.3517 -115.1208 18° North 453 521 35,000  Level Los Angeles Center
02:04PM 35.4714 -115.0742 18° North 452 520 35,000  Level Los Angeles Center
02:05PM 35.6164 -115.0156 18° North 456 525 35,000  Level Los Angeles Center
02:06PM 35.7369 -114.9664 18° North 456 525 35,000  Level Los Angeles Center
02:07PM 35.8558 -114.9194 18° North 452 520 35,000  Level Los Angeles Center
02:08PM 35.9772 -114.8683 19° North 459 528 35,000  Level Los Angeles Center
02:09PM 36.0922 -114.7869 30° Northeast 477 549 35,000  Level Los Angeles Center
02:10PM 36.2267 -114.6842 32° Northeast 478 550 35,000  Level Los Angeles Center
02:11PM 36.3392 -114.5992 31° Northeast 477 549 35,000  Level Los Angeles Center
02:12PM 36.4744 -114.4942 32° Northeast 479 551 35,000  Level Los Angeles Center
02:13PM 36.5889 -114.4081 31° Northeast 480 552 35,000  Level Los Angeles Center
02:14PM 36.7036 -114.3214 31° Northeast 482 555 35,000 -360 Level Los Angeles Center
02:15PM 36.8425 -114.2144 32° Northeast 488 562 34,300 -900 Descending Los Angeles Center
02:17PM 36.9600 -114.1244 31° Northeast 493 567 33,200 -660 Descending Los Angeles Center
02:18PM 37.0750 -114.0367 31° Northeast 489 563 33,000 -120 Descending Los Angeles Center
02:19PM 37.1875 -113.9506 31° Northeast 479 551 33,000  Level Los Angeles Center
02:20PM 37.3128 -113.8508 32° Northeast 474 545 33,000  Level Los Angeles Center
02:21PM 37.4258 -113.7628 32° Northeast 475 547 33,000  Level Los Angeles Center
02:22PM 37.5400 -113.6717 32° Northeast 480 552 33,000  Level Los Angeles Center
02:23PM 37.6567 -113.5814 31° Northeast 486 559 33,000  Level Los Angeles Center
02:23PM 37.7258 -113.5256 33° Northeast 489 563 33,000  Level Salt Lake Center
02:24PM 37.8422 -113.4344 32° Northeast 489 563 33,000 -300 Level Salt Lake Center
02:25PM 37.9592 -113.3406 32° Northeast 493 567 32,500 -540 Descending Salt Lake Center
02:26PM 38.0731 -113.2483 33° Northeast 485 558 32,000 -300 Descending Salt Lake Center
02:27PM 38.2044 -113.1417 33° Northeast 468 539 32,000  Level Salt Lake Center
02:28PM 38.3153 -113.0517 32° Northeast 471 542 32,000  Level Salt Lake Center
02:30PM 38.4361 -112.9725 27° Northeast 486 559 32,000  Level Salt Lake Center
02:31PM 38.5658 -112.9044 22° Northeast 499 574 32,000  Level Salt Lake Center
02:32PM 38.6953 -112.8342 23° Northeast 503 579 32,000  Level Salt Lake Center
02:33PM 38.8250 -112.7661 22° Northeast 504 580 32,000  Level Salt Lake Center
02:34PM 38.9542 -112.6958 23° Northeast 505 581 32,000 -540 Level Salt Lake Center
02:35PM 39.1103 -112.6108 23° Northeast 508 585 30,900 -1,560 Descending Salt Lake Center
02:36PM 39.2342 -112.5428 23° Northeast 508 585 28,800 -2,280 Descending Salt Lake Center
02:37PM 39.3625 -112.4722 23° Northeast 504 580 26,300 -2,460 Descending Salt Lake Center
02:38PM 39.4858 -112.4022 24° Northeast 486 559 23,800 -2,700 Descending Salt Lake Center
02:39PM 39.6342 -112.3158 24° Northeast 487 560 20,800 -2,580 Descending Salt Lake Center
02:40PM 39.7550 -112.2483 23° Northeast 475 547 18,500 -2,100 Descending Salt Lake Center
02:41PM 39.8683 -112.1806 25° Northeast 451 519 16,500 -1,920 Descending Salt Lake Center
02:41PM 39.9383 -112.1506 18° North 421 484 15,400 -1,080 Descending Salt Lake Center
02:43PM 40.0286 -112.0953 25° Northeast 359 413 14,800 -840 Descending Salt Lake Center
02:45PM 40.1833 -111.9734 25° Northeast  Level FlightAware Approximate
02:46PM 40.2608 -111.9528 25° Northeast 277 319 12,000  Level Salt Lake Center
02:46PM 40.2992 -111.9383 16° North 274 315 12,000 -600 Level Salt Lake Center
02:47PM 40.3753 -111.9306 North 272 313 11,100 -840 Descending Salt Lake Center
02:48PM 40.4456 -111.9353 357° North 250 288 10,300 -600 Descending Salt Lake Center
02:49PM 40.5086 -111.9456 353° North 230 265 9,900 -780 Descending Salt Lake Center
02:50PM 40.5653 -111.9486 358° North 201 231 8,800 -1,320 Descending Salt Lake Center
02:51PM 40.6319 -111.9569 355° North 196 226 7,200 -1,560 Descending Salt Lake Center